createdAt,value
2022-11-16T00:00:13.201Z,9.73
2022-11-16T00:02:39.936Z,10.70
2022-11-16T00:05:07.151Z,9.37
2022-11-16T00:07:33.845Z,10.47
2022-11-16T00:10:00.526Z,11.10
2022-11-16T00:12:27.598Z,9.30
2022-11-16T00:14:54.397Z,10.93
2022-11-16T00:17:21.457Z,10.13
2022-11-16T00:19:48.527Z,11.13
2022-11-16T00:22:15.596Z,11.13
2022-11-16T00:24:42.252Z,9.90
2022-11-16T00:27:08.885Z,10.40
2022-11-16T00:29:36.009Z,11.37
2022-11-16T00:32:02.647Z,10.93
2022-11-16T00:34:29.740Z,9.47
2022-11-16T00:36:56.630Z,9.23
2022-11-16T00:39:24.112Z,8.80
2022-11-16T00:41:51.234Z,9.70
2022-11-16T00:44:18.756Z,12.87
2022-11-16T00:46:45.793Z,12.53
2022-11-16T00:49:12.891Z,12.17
2022-11-16T00:51:39.517Z,12.10
2022-11-16T00:54:08.039Z,12.47
2022-11-16T00:56:35.324Z,10.43
2022-11-16T00:59:02.022Z,12.93
2022-11-16T01:01:28.780Z,10.30
2022-11-16T01:03:55.581Z,9.93
2022-11-16T01:06:23.415Z,12.30
2022-11-16T01:08:50.934Z,12.23
2022-11-16T01:11:37.871Z,14.97
2022-11-16T01:14:07.767Z,9.20
2022-11-16T01:16:35.164Z,14.73
2022-11-16T01:19:02.804Z,15.23
2022-11-16T01:21:29.445Z,14.40
2022-11-16T01:23:57.151Z,12.47
2022-11-16T01:26:24.661Z,11.53
2022-11-16T01:28:51.610Z,14.60
2022-11-16T01:31:18.696Z,9.50
2022-11-16T01:33:45.396Z,14.23
2022-11-16T01:36:14.728Z,13.10
2022-11-16T01:38:43.277Z,13.07
2022-11-16T01:41:14.786Z,12.80
2022-11-16T01:44:04.917Z,15.83
2022-11-16T01:46:31.969Z,13.07
2022-11-16T01:49:10.571Z,11.00
2022-11-16T01:51:38.900Z,12.30
2022-11-16T01:54:09.782Z,10.77
2022-11-16T01:56:38.589Z,13.17
2022-11-16T01:59:05.754Z,14.77
2022-11-16T02:01:32.867Z,11.40
2022-11-16T02:03:59.972Z,13.50
2022-11-16T02:06:26.573Z,33.10
2022-11-16T02:09:39.300Z,72.20
2022-11-16T02:12:06.389Z,52.07
2022-11-16T02:15:00.726Z,21.50
2022-11-16T02:17:36.479Z,18.93
2022-11-16T02:20:12.107Z,14.83
2022-11-16T02:22:57.312Z,15.90
2022-11-16T02:25:38.868Z,13.50
2022-11-16T02:28:24.213Z,10.33
2022-11-16T02:30:53.824Z,9.60
2022-11-16T02:33:25.840Z,8.33
2022-11-16T02:35:56.352Z,7.07
2022-11-16T02:38:37.344Z,11.57
2022-11-16T02:41:10.105Z,13.37
2022-11-16T02:43:50.545Z,9.13
2022-11-16T02:46:22.674Z,9.70
2022-11-16T02:48:53.292Z,10.33
2022-11-16T02:51:21.856Z,7.60
2022-11-16T02:54:15.210Z,9.63
2022-11-16T02:56:50.607Z,11.00
2022-11-16T02:59:17.852Z,9.83
2022-11-16T03:01:59.689Z,13.13
2022-11-16T03:04:36.165Z,10.40
2022-11-16T03:07:10.740Z,10.73
2022-11-16T03:09:39.859Z,11.13
2022-11-16T03:12:10.858Z,10.87
2022-11-16T03:14:56.682Z,8.40
2022-11-16T03:17:30.388Z,10.20
2022-11-16T03:20:06.713Z,10.87
2022-11-16T03:22:39.258Z,6.93
2022-11-16T03:25:07.215Z,10.40
2022-11-16T03:27:44.880Z,8.00
2022-11-16T03:30:24.491Z,8.93
2022-11-16T03:33:06.164Z,10.07
2022-11-16T03:35:48.224Z,8.90
2022-11-16T03:38:17.488Z,7.40
2022-11-16T03:40:46.519Z,7.00
2022-11-16T03:43:14.870Z,8.30
2022-11-16T03:45:42.157Z,7.53
2022-11-16T03:48:09.272Z,6.53
2022-11-16T03:50:35.950Z,7.80
2022-11-16T03:53:02.626Z,8.40
2022-11-16T03:55:29.305Z,6.33
2022-11-16T03:57:56.387Z,9.17
2022-11-16T04:00:23.032Z,5.97
2022-11-16T04:02:50.084Z,5.03
2022-11-16T04:05:35.537Z,6.47
2022-11-16T04:08:21.438Z,4.60
2022-11-16T04:11:07.345Z,8.27
2022-11-16T04:13:53.253Z,4.00
2022-11-16T04:16:38.633Z,4.90
2022-11-16T04:19:24.111Z,3.60
2022-11-16T04:22:13.519Z,6.23
2022-11-16T04:24:44.219Z,4.27
2022-11-16T04:27:32.820Z,5.90
2022-11-16T04:30:01.961Z,4.10
2022-11-16T04:32:47.587Z,3.70
2022-11-16T04:35:33.228Z,5.50
2022-11-16T04:37:59.945Z,3.27
2022-11-16T04:40:29.416Z,3.30
2022-11-16T04:43:01.477Z,5.13
2022-11-16T04:45:47.303Z,2.80
2022-11-16T04:48:15.593Z,2.70
2022-11-16T04:50:42.482Z,3.33
2022-11-16T04:53:09.701Z,4.73
2022-11-16T04:55:36.433Z,1.67
2022-11-16T04:58:03.581Z,1.13
2022-11-16T05:00:30.652Z,1.20
2022-11-16T05:03:01.252Z,2.80
2022-11-16T05:05:28.895Z,1.40
2022-11-16T05:07:56.027Z,1.43
2022-11-16T05:10:23.096Z,1.53
2022-11-16T05:12:49.782Z,2.37
2022-11-16T05:15:17.707Z,2.80
2022-11-16T05:17:44.365Z,2.87
2022-11-16T05:20:30.410Z,4.20
2022-11-16T05:22:58.325Z,1.97
2022-11-16T05:25:25.018Z,1.60
2022-11-16T05:27:52.085Z,2.97
2022-11-16T05:30:18.858Z,3.83
2022-11-16T05:32:45.988Z,3.93
2022-11-16T05:35:13.092Z,5.10
2022-11-16T05:37:40.162Z,2.43
2022-11-16T05:40:07.571Z,2.73
2022-11-16T05:42:34.418Z,7.03
2022-11-16T05:45:01.208Z,4.93
2022-11-16T05:47:27.897Z,3.83
2022-11-16T05:49:54.971Z,4.53
2022-11-16T05:52:22.038Z,3.30
2022-11-16T05:54:49.123Z,3.53
2022-11-16T05:57:15.911Z,3.40
2022-11-16T05:59:43.241Z,3.97
2022-11-16T06:02:10.291Z,5.07
2022-11-16T06:04:37.348Z,3.50
2022-11-16T06:07:04.101Z,4.47
2022-11-16T06:09:31.354Z,4.20
2022-11-16T06:11:57.985Z,4.73
2022-11-16T06:14:24.725Z,4.47
2022-11-16T06:16:51.795Z,5.17
2022-11-16T06:19:18.463Z,4.97
2022-11-16T06:21:45.547Z,4.53
2022-11-16T06:24:12.200Z,7.23
2022-11-16T06:26:38.850Z,4.13
2022-11-16T06:29:05.524Z,5.03
2022-11-16T06:31:32.690Z,4.37
2022-11-16T06:33:59.500Z,5.37
2022-11-16T06:36:26.561Z,5.27
2022-11-16T06:38:53.217Z,7.40
2022-11-16T06:41:19.981Z,4.83
2022-11-16T06:43:47.093Z,5.50
2022-11-16T06:46:13.814Z,5.40
2022-11-16T06:48:40.973Z,6.97
2022-11-16T06:51:07.898Z,6.23
2022-11-16T06:53:35.409Z,7.53
2022-11-16T06:56:03.774Z,7.53
2022-11-16T06:58:32.145Z,7.10
2022-11-16T07:01:08.949Z,7.40
2022-11-16T07:03:35.580Z,9.67
2022-11-16T07:06:07.669Z,7.87
2022-11-16T07:08:35.016Z,6.37
2022-11-16T07:11:04.395Z,8.00
2022-11-16T07:13:33.101Z,7.13
2022-11-16T07:16:10.674Z,9.63
2022-11-16T07:18:39.129Z,7.50
2022-11-16T07:21:11.709Z,8.37
2022-11-16T07:23:38.888Z,8.80
2022-11-16T07:26:07.313Z,7.23
2022-11-16T07:28:34.838Z,8.00
2022-11-16T07:31:03.547Z,7.30
2022-11-16T07:33:30.672Z,5.53
2022-11-16T07:36:07.887Z,5.53
2022-11-16T07:38:35.149Z,5.43
2022-11-16T07:41:06.522Z,5.70
2022-11-16T07:43:37.039Z,6.23
2022-11-16T07:48:59.205Z,10.13
2022-11-16T07:51:26.268Z,6.43
2022-11-16T07:53:55.889Z,10.90
2022-11-16T07:56:22.663Z,5.90
2022-11-16T07:58:49.843Z,8.93
2022-11-16T08:01:18.530Z,6.27
2022-11-16T08:03:46.343Z,7.87
2022-11-16T08:06:23.740Z,6.37
2022-11-16T08:08:55.138Z,6.57
2022-11-16T08:11:24.652Z,6.47
2022-11-16T08:13:51.316Z,7.27
2022-11-16T08:16:20.252Z,6.07
2022-11-16T08:18:47.545Z,6.03
2022-11-16T08:21:16.125Z,6.57
2022-11-16T08:23:44.624Z,9.27
2022-11-16T08:26:16.773Z,6.63
2022-11-16T08:28:45.871Z,8.40
2022-11-16T08:31:14.993Z,13.03
2022-11-16T08:33:41.993Z,10.00
2022-11-16T08:36:14.227Z,9.67
2022-11-16T08:38:41.414Z,7.90
2022-11-16T08:41:08.506Z,8.60
2022-11-16T08:43:35.913Z,10.63
2022-11-16T08:46:03.176Z,10.33
2022-11-16T08:48:30.422Z,14.57
2022-11-16T08:51:21.994Z,6.83
2022-11-16T08:53:49.889Z,11.40
2022-11-16T08:56:18.163Z,15.27
2022-11-16T08:58:53.917Z,15.67
2022-11-16T09:01:27.330Z,10.20
2022-11-16T09:03:54.542Z,9.03
2022-11-16T09:06:22.493Z,6.23
2022-11-16T09:08:49.474Z,8.10
2022-11-16T09:11:19.107Z,6.30
2022-11-16T09:13:47.527Z,7.60
2022-11-16T09:16:17.914Z,10.07
2022-11-16T09:18:47.050Z,8.57
2022-11-16T09:21:18.875Z,9.83
2022-11-16T09:23:46.512Z,10.20
2022-11-16T09:26:13.786Z,6.30
2022-11-16T09:28:40.625Z,7.33
2022-11-16T09:31:07.380Z,7.77
2022-11-16T09:33:34.534Z,9.53
2022-11-16T09:36:07.294Z,10.57
2022-11-16T09:42:05.736Z,8.80
2022-11-16T09:44:41.677Z,8.17
2022-11-16T09:47:36.042Z,12.07
2022-11-16T09:50:05.400Z,9.77
2022-11-16T09:52:40.745Z,8.03
2022-11-16T09:55:42.225Z,8.63
2022-11-16T09:58:21.736Z,9.53
2022-11-16T10:00:56.120Z,6.17
2022-11-16T10:03:26.358Z,9.33
2022-11-16T10:06:11.505Z,6.13
2022-11-16T10:08:46.582Z,9.80
2022-11-16T10:11:39.528Z,8.93
2022-11-16T10:14:06.579Z,7.57
2022-11-16T10:16:33.659Z,8.27
2022-11-16T10:19:22.078Z,8.30
2022-11-16T10:22:17.676Z,7.93
2022-11-16T10:25:16.836Z,5.00
2022-11-16T10:28:14.362Z,5.87
2022-11-16T10:30:52.112Z,4.80
2022-11-16T10:33:22.038Z,9.30
2022-11-16T10:35:55.946Z,6.53
2022-11-16T10:38:28.343Z,7.43
2022-11-16T10:41:18.069Z,4.90
2022-11-16T10:43:45.554Z,6.73
2022-11-16T10:46:21.355Z,7.90
2022-11-16T10:49:12.332Z,6.77
2022-11-16T10:51:39.029Z,8.10
2022-11-16T10:54:16.341Z,4.50
2022-11-16T10:56:47.078Z,9.63
2022-11-16T10:59:15.413Z,5.90
2022-11-16T11:01:50.395Z,8.40
2022-11-16T11:04:31.566Z,7.27
2022-11-16T11:07:17.153Z,5.87
2022-11-16T11:09:43.991Z,7.47
2022-11-16T11:12:35.013Z,11.10
2022-11-16T11:15:25.946Z,6.57
2022-11-16T11:18:15.182Z,8.20
2022-11-16T11:21:00.332Z,9.90
2022-11-16T11:23:27.751Z,5.93
2022-11-16T11:25:57.141Z,7.93
2022-11-16T11:28:32.685Z,11.27
2022-11-16T11:31:04.885Z,5.30
2022-11-16T11:33:37.633Z,11.40
2022-11-16T11:36:04.567Z,6.03
2022-11-16T11:38:31.960Z,4.37
2022-11-16T11:41:01.499Z,5.90
2022-11-16T11:43:29.725Z,7.80
2022-11-16T11:46:11.616Z,8.47
2022-11-16T11:49:04.833Z,6.03
2022-11-16T11:51:31.852Z,6.13
2022-11-16T11:54:01.027Z,8.27
2022-11-16T11:56:31.689Z,7.00
2022-11-16T11:58:58.704Z,8.03
2022-11-16T12:01:34.158Z,4.37
2022-11-16T12:04:28.277Z,4.97
2022-11-16T12:07:27.191Z,3.13
2022-11-16T12:10:02.526Z,4.17
2022-11-16T12:12:47.447Z,5.23
2022-11-16T12:15:49.477Z,6.00
2022-11-16T12:18:16.488Z,7.37
2022-11-16T12:20:48.905Z,8.67
2022-11-16T12:23:39.490Z,6.23
2022-11-16T12:26:35.338Z,5.70
2022-11-16T12:29:22.992Z,5.03
2022-11-16T12:32:10.854Z,5.63
2022-11-16T12:34:53.093Z,9.63
2022-11-16T12:37:29.895Z,7.33
2022-11-16T12:40:24.261Z,10.13
2022-11-16T12:43:00.748Z,7.13
2022-11-16T12:45:33.192Z,6.47
2022-11-16T12:48:21.893Z,8.47
2022-11-16T12:50:48.998Z,5.17
2022-11-16T12:53:37.610Z,4.87
2022-11-16T12:56:12.393Z,7.77
2022-11-16T12:59:18.027Z,3.80
2022-11-16T13:02:30.221Z,4.80
2022-11-16T13:05:18.954Z,5.47
2022-11-16T13:08:11.372Z,4.40
2022-11-16T13:10:43.207Z,8.27
2022-11-16T13:13:35.937Z,5.80
2022-11-16T13:16:09.552Z,4.23
2022-11-16T13:18:40.208Z,4.63
2022-11-16T13:21:15.770Z,6.53
2022-11-16T13:24:12.196Z,4.33
2022-11-16T13:26:54.167Z,6.07
2022-11-16T13:29:54.072Z,4.00
2022-11-16T13:32:32.793Z,6.40
2022-11-16T13:35:00.935Z,4.43
2022-11-16T13:37:50.428Z,4.77
2022-11-16T13:40:27.939Z,6.40
2022-11-16T13:43:04.195Z,5.83
2022-11-16T13:45:56.984Z,5.00
2022-11-16T13:48:35.132Z,2.00
2022-11-16T13:51:05.703Z,3.50
2022-11-16T13:56:48.551Z,5.80
2022-11-16T13:59:22.867Z,3.50
2022-11-16T14:01:59.339Z,3.40
2022-11-16T14:04:42.352Z,6.97
2022-11-16T14:07:37.821Z,6.33
2022-11-16T14:10:06.021Z,3.37
2022-11-16T14:12:38.924Z,4.67
2022-11-16T14:15:29.243Z,7.60
2022-11-16T14:17:57.636Z,5.90
2022-11-16T14:20:45.499Z,8.67
2022-11-16T14:23:26.196Z,4.47
2022-11-16T14:26:08.204Z,7.20
2022-11-16T14:29:03.208Z,5.80
2022-11-16T14:31:45.486Z,4.33
2022-11-16T14:34:24.343Z,6.97
2022-11-16T14:36:51.639Z,6.03
2022-11-16T14:39:37.418Z,5.63
2022-11-16T14:42:25.490Z,5.23
2022-11-16T14:45:05.975Z,3.97
2022-11-16T14:47:36.089Z,7.90
2022-11-16T14:50:02.853Z,7.97
2022-11-16T14:52:40.201Z,2.97
2022-11-16T14:55:09.542Z,6.67
2022-11-16T14:57:36.419Z,7.50
2022-11-16T15:00:23.029Z,5.80
2022-11-16T15:03:00.954Z,7.67
2022-11-16T15:05:34.821Z,4.13
2022-11-16T15:08:14.730Z,4.43
2022-11-16T15:10:51.114Z,5.07
2022-11-16T15:13:25.028Z,8.13
2022-11-16T15:16:30.537Z,7.80
2022-11-16T15:19:02.024Z,3.60
2022-11-16T15:21:29.464Z,3.97
2022-11-16T15:26:43.515Z,4.50
2022-11-16T15:29:16.656Z,5.87
2022-11-16T15:31:44.178Z,4.17
2022-11-16T15:34:16.761Z,8.80
2022-11-16T15:36:43.771Z,5.53
2022-11-16T15:39:19.601Z,7.57
2022-11-16T15:41:46.858Z,5.00
2022-11-16T15:44:19.346Z,6.03
2022-11-16T15:46:48.909Z,5.33
2022-11-16T15:52:05.612Z,6.17
2022-11-16T15:54:52.645Z,5.57
2022-11-16T15:57:21.939Z,4.93
2022-11-16T15:59:50.931Z,5.40
2022-11-16T16:02:28.192Z,7.63
2022-11-16T16:04:55.146Z,5.43
2022-11-16T16:07:39.345Z,6.80
2022-11-16T16:10:32.627Z,8.23
2022-11-16T16:13:00.977Z,5.57
2022-11-16T16:15:36.849Z,5.33
2022-11-16T16:18:11.478Z,5.43
2022-11-16T16:20:38.339Z,8.87
2022-11-16T16:23:08.320Z,6.40
2022-11-16T16:25:36.305Z,7.73
2022-11-16T16:28:03.801Z,7.17
2022-11-16T16:30:31.725Z,6.07
2022-11-16T16:32:58.946Z,5.83
2022-11-16T16:35:26.241Z,4.47
2022-11-16T16:38:02.156Z,7.17
2022-11-16T16:40:29.217Z,5.53
2022-11-16T16:42:56.873Z,6.67
2022-11-16T16:45:45.443Z,5.40
2022-11-16T16:48:12.813Z,7.13
2022-11-16T16:50:39.887Z,6.23
2022-11-16T16:53:06.686Z,5.87
2022-11-16T16:55:37.395Z,5.70
2022-11-16T16:58:05.465Z,7.13
2022-11-16T17:00:32.806Z,7.03
2022-11-16T17:02:59.898Z,7.53
2022-11-16T17:05:27.129Z,6.20
2022-11-16T17:07:56.871Z,5.20
2022-11-16T17:10:23.955Z,5.27
2022-11-16T17:12:53.904Z,5.27
2022-11-16T17:15:21.132Z,5.17
2022-11-16T17:17:48.459Z,4.20
2022-11-16T17:20:16.355Z,6.40
2022-11-16T17:22:43.580Z,4.87
2022-11-16T17:25:10.989Z,6.23
2022-11-16T17:27:37.798Z,5.10
2022-11-16T17:30:04.865Z,5.10
2022-11-16T17:32:32.328Z,5.47
2022-11-16T17:34:59.393Z,8.30
2022-11-16T17:37:26.534Z,6.87
2022-11-16T17:39:53.244Z,6.63
2022-11-16T17:42:20.328Z,9.53
2022-11-16T17:44:47.068Z,4.30
2022-11-16T17:47:13.874Z,4.53
2022-11-16T17:49:40.997Z,6.63
2022-11-16T17:52:07.792Z,3.80
2022-11-16T17:54:34.914Z,4.30
2022-11-16T17:57:01.613Z,4.03
2022-11-16T17:59:29.958Z,5.00
2022-11-16T18:01:58.002Z,6.73
2022-11-16T18:04:25.385Z,5.57
2022-11-16T18:06:52.719Z,4.40
2022-11-16T18:09:19.422Z,6.67
2022-11-16T18:11:46.572Z,7.83
2022-11-16T18:14:13.666Z,3.67
2022-11-16T18:16:44.289Z,5.83
2022-11-16T18:19:16.175Z,5.70
2022-11-16T18:21:43.457Z,7.87
2022-11-16T18:24:10.910Z,6.33
2022-11-16T18:26:38.241Z,9.20
2022-11-16T18:29:05.013Z,5.63
2022-11-16T18:31:33.829Z,7.10
2022-11-16T18:34:01.325Z,12.63
2022-11-16T18:36:28.465Z,8.43
2022-11-16T18:38:55.564Z,7.13
2022-11-16T18:41:25.216Z,5.87
2022-11-16T18:43:52.361Z,6.07
2022-11-16T18:46:27.366Z,7.23
2022-11-16T18:48:54.698Z,7.10
2022-11-16T18:51:22.929Z,5.17
2022-11-16T18:53:50.352Z,3.50
2022-11-16T18:56:17.721Z,6.73
2022-11-16T18:58:53.172Z,6.37
2022-11-16T19:01:23.040Z,12.63
2022-11-16T19:03:50.729Z,9.83
2022-11-16T19:06:18.430Z,7.23
2022-11-16T19:08:50.465Z,9.20
2022-11-16T19:11:18.875Z,6.93
2022-11-16T19:13:46.787Z,7.23
2022-11-16T19:16:14.398Z,3.87
2022-11-16T19:18:41.600Z,7.50
2022-11-16T19:21:10.557Z,6.53
2022-11-16T19:23:47.198Z,5.87
2022-11-16T19:26:15.154Z,4.97
2022-11-16T19:28:44.178Z,9.57
2022-11-16T19:31:22.945Z,6.00
2022-11-16T19:33:54.502Z,4.63
2022-11-16T19:36:21.799Z,10.77
2022-11-16T19:38:48.921Z,5.83
2022-11-16T19:41:17.477Z,4.73
2022-11-16T19:43:44.242Z,6.33
2022-11-16T19:46:20.262Z,6.47
2022-11-16T19:48:49.240Z,7.23
2022-11-16T19:51:17.587Z,7.13
2022-11-16T19:53:44.626Z,5.60
2022-11-16T19:56:12.797Z,8.37
2022-11-16T19:58:39.848Z,5.47
2022-11-16T20:01:09.766Z,6.67
2022-11-16T20:03:41.750Z,6.23
2022-11-16T20:06:12.734Z,6.50
2022-11-16T20:08:40.420Z,6.83
2022-11-16T20:11:27.429Z,6.17
2022-11-16T20:13:56.278Z,6.00
2022-11-16T20:16:24.495Z,5.17
2022-11-16T20:18:52.686Z,5.90
2022-11-16T20:21:33.094Z,4.20
2022-11-16T20:24:06.023Z,6.07
2022-11-16T20:26:34.732Z,6.00
2022-11-16T20:29:01.496Z,8.10
2022-11-16T20:31:33.218Z,6.80
2022-11-16T20:34:02.787Z,7.00
2022-11-16T20:36:30.866Z,5.57
2022-11-16T20:38:58.849Z,6.17
2022-11-16T20:41:27.894Z,4.70
2022-11-16T20:43:56.144Z,5.50
2022-11-16T20:46:25.138Z,7.27
2022-11-16T20:48:52.183Z,5.40
2022-11-16T20:51:20.086Z,8.33
2022-11-16T20:53:48.558Z,4.43
2022-11-16T20:56:16.951Z,10.83
2022-11-16T20:58:44.347Z,10.37
2022-11-16T21:01:13.337Z,7.53
2022-11-16T21:03:40.955Z,7.00
2022-11-16T21:06:08.813Z,3.93
2022-11-16T21:08:37.196Z,5.73
2022-11-16T21:11:10.678Z,5.70
2022-11-16T21:13:56.462Z,5.60
2022-11-16T21:16:23.594Z,5.63
2022-11-16T21:18:50.675Z,3.90
2022-11-16T21:21:17.334Z,8.43
2022-11-16T21:23:51.204Z,6.43
2022-11-16T21:26:20.519Z,3.77
2022-11-16T21:28:47.527Z,6.17
2022-11-16T21:31:19.274Z,6.80
2022-11-16T21:33:47.349Z,8.03
2022-11-16T21:36:22.989Z,7.40
2022-11-16T21:38:49.972Z,4.93
2022-11-16T21:41:18.105Z,5.20
2022-11-16T21:43:44.870Z,6.90
2022-11-16T21:46:11.939Z,5.27
2022-11-16T21:48:39.188Z,5.00
2022-11-16T21:51:06.321Z,5.10
2022-11-16T21:53:34.085Z,4.70
2022-11-16T21:56:01.929Z,9.43
2022-11-16T21:58:28.785Z,7.90
2022-11-16T22:00:57.456Z,4.77
2022-11-16T22:03:26.287Z,3.97
2022-11-16T22:06:14.781Z,8.30
2022-11-16T22:08:42.114Z,6.40
2022-11-16T22:11:10.003Z,6.80
2022-11-16T22:13:38.076Z,6.57
2022-11-16T22:16:09.359Z,7.17
2022-11-16T22:18:36.749Z,6.83
2022-11-16T22:21:03.858Z,8.00
2022-11-16T22:23:31.165Z,6.30
2022-11-16T22:26:02.306Z,5.70
2022-11-16T22:28:29.584Z,5.57
2022-11-16T22:31:04.932Z,6.77
2022-11-16T22:33:32.146Z,5.27
2022-11-16T22:35:59.516Z,6.43
2022-11-16T22:38:26.601Z,7.83
2022-11-16T22:40:56.933Z,9.13
2022-11-16T22:43:27.157Z,7.00
2022-11-16T22:46:01.997Z,5.87
2022-11-16T22:48:35.619Z,9.90
2022-11-16T22:51:14.500Z,5.27
2022-11-16T22:53:41.151Z,6.63
2022-11-16T22:56:09.157Z,7.20
2022-11-16T22:58:37.293Z,8.90
2022-11-16T23:01:05.644Z,7.33
2022-11-16T23:03:32.450Z,5.63
2022-11-16T23:05:59.811Z,8.47
2022-11-16T23:08:27.417Z,4.43
2022-11-16T23:11:32.426Z,7.03
2022-11-16T23:14:18.491Z,6.30
2022-11-16T23:16:46.617Z,5.20
2022-11-16T23:19:34.742Z,7.60
2022-11-16T23:22:20.628Z,9.00
2022-11-16T23:25:06.623Z,4.23
2022-11-16T23:27:38.683Z,6.47
2022-11-16T23:30:12.127Z,9.97
2022-11-16T23:32:40.059Z,6.63
2022-11-16T23:35:07.317Z,8.37
2022-11-16T23:37:34.418Z,6.73
2022-11-16T23:40:01.149Z,7.50
2022-11-16T23:42:46.705Z,10.47
2022-11-16T23:45:13.847Z,7.17
2022-11-16T23:47:40.917Z,7.33
2022-11-16T23:50:07.909Z,4.40
2022-11-16T23:52:35.037Z,7.17
2022-11-16T23:55:02.076Z,7.77
2022-11-16T23:57:29.130Z,5.00
2022-11-16T23:59:55.762Z,5.57
